sensor_id;sensor_type;location;lat;lon;timestamp;pressure;altitude;pressure_sealevel;temperature;humidity
76229;BME280;65021;53.174;18.160;2023-07-28T00:01:24;100054.60;;;16.01;68.85
76229;BME280;65021;53.174;18.160;2023-07-28T00:03:51;100051.91;;;16.05;68.62
76229;BME280;65021;53.174;18.160;2023-07-28T00:06:18;100054.38;;;16.10;68.38
76229;BME280;65021;53.174;18.160;2023-07-28T00:08:44;100051.86;;;16.13;67.92
76229;BME280;65021;53.174;18.160;2023-07-28T00:11:12;100047.38;;;16.17;67.58
76229;BME280;65021;53.174;18.160;2023-07-28T00:13:40;100044.83;;;16.21;67.41
76229;BME280;65021;53.174;18.160;2023-07-28T00:16:08;100041.08;;;16.23;67.37
76229;BME280;65021;53.174;18.160;2023-07-28T00:18:35;100037.67;;;16.26;67.22
76229;BME280;65021;53.174;18.160;2023-07-28T00:21:04;100031.64;;;16.28;67.07
76229;BME280;65021;53.174;18.160;2023-07-28T00:23:31;100031.31;;;16.31;67.09
76229;BME280;65021;53.174;18.160;2023-07-28T00:25:57;100034.11;;;16.36;66.97
76229;BME280;65021;53.174;18.160;2023-07-28T00:28:24;100035.98;;;16.39;67.01
76229;BME280;65021;53.174;18.160;2023-07-28T00:30:51;100033.35;;;16.42;66.84
76229;BME280;65021;53.174;18.160;2023-07-28T00:33:17;100029.66;;;16.44;67.10
76229;BME280;65021;53.174;18.160;2023-07-28T00:35:44;100028.70;;;16.46;66.93
76229;BME280;65021;53.174;18.160;2023-07-28T00:38:10;100027.70;;;16.48;67.03
76229;BME280;65021;53.174;18.160;2023-07-28T00:40:37;100024.83;;;16.50;67.05
76229;BME280;65021;53.174;18.160;2023-07-28T00:43:03;100029.80;;;16.51;67.09
76229;BME280;65021;53.174;18.160;2023-07-28T00:45:31;100026.83;;;16.53;66.78
76229;BME280;65021;53.174;18.160;2023-07-28T00:47:59;100026.30;;;16.54;67.02
76229;BME280;65021;53.174;18.160;2023-07-28T00:50:26;100023.45;;;16.54;66.72
76229;BME280;65021;53.174;18.160;2023-07-28T00:52:55;100022.70;;;16.55;66.78
76229;BME280;65021;53.174;18.160;2023-07-28T00:55:22;100021.75;;;16.55;66.84
76229;BME280;65021;53.174;18.160;2023-07-28T00:57:50;100014.67;;;16.55;66.92
76229;BME280;65021;53.174;18.160;2023-07-28T01:00:16;100008.05;;;16.55;66.89
76229;BME280;65021;53.174;18.160;2023-07-28T01:02:43;100003.67;;;16.56;66.92
76229;BME280;65021;53.174;18.160;2023-07-28T01:05:10;100003.00;;;16.55;67.08
76229;BME280;65021;53.174;18.160;2023-07-28T01:07:45;100004.77;;;16.53;67.05
76229;BME280;65021;53.174;18.160;2023-07-28T01:10:24;100004.34;;;16.51;67.10
76229;BME280;65021;53.174;18.160;2023-07-28T01:12:52;99999.13;;;16.50;67.14
76229;BME280;65021;53.174;18.160;2023-07-28T01:15:19;99993.92;;;16.49;67.15
76229;BME280;65021;53.174;18.160;2023-07-28T01:17:46;99997.73;;;16.49;67.40
76229;BME280;65021;53.174;18.160;2023-07-28T01:20:12;99992.91;;;16.46;67.53
76229;BME280;65021;53.174;18.160;2023-07-28T01:22:55;99992.91;;;16.42;67.57
76229;BME280;65021;53.174;18.160;2023-07-28T01:28:13;99987.76;;;16.32;67.88
76229;BME280;65021;53.174;18.160;2023-07-28T01:30:41;99985.96;;;16.30;68.09
76229;BME280;65021;53.174;18.160;2023-07-28T01:33:08;99980.28;;;16.27;68.11
76229;BME280;65021;53.174;18.160;2023-07-28T01:35:38;99981.79;;;16.27;68.29
76229;BME280;65021;53.174;18.160;2023-07-28T01:38:05;99983.27;;;16.26;68.35
76229;BME280;65021;53.174;18.160;2023-07-28T01:40:31;99983.39;;;16.26;68.55
76229;BME280;65021;53.174;18.160;2023-07-28T01:42:58;99979.59;;;16.24;68.36
76229;BME280;65021;53.174;18.160;2023-07-28T01:45:25;99975.80;;;16.22;68.57
76229;BME280;65021;53.174;18.160;2023-07-28T01:47:51;99976.61;;;16.21;68.37
76229;BME280;65021;53.174;18.160;2023-07-28T01:50:18;99971.66;;;16.22;68.84
76229;BME280;65021;53.174;18.160;2023-07-28T01:52:44;99968.77;;;16.21;68.93
76229;BME280;65021;53.174;18.160;2023-07-28T01:55:11;99962.60;;;16.20;68.80
76229;BME280;65021;53.174;18.160;2023-07-28T01:57:39;99961.70;;;16.20;69.34
76229;BME280;65021;53.174;18.160;2023-07-28T02:00:06;99960.67;;;16.19;69.05
76229;BME280;65021;53.174;18.160;2023-07-28T02:02:33;99957.43;;;16.17;69.40
76229;BME280;65021;53.174;18.160;2023-07-28T02:05:00;99951.88;;;16.17;69.17
76229;BME280;65021;53.174;18.160;2023-07-28T02:07:26;99951.54;;;16.17;69.56
76229;BME280;65021;53.174;18.160;2023-07-28T02:09:53;99951.31;;;16.17;69.42
76229;BME280;65021;53.174;18.160;2023-07-28T02:12:19;99950.98;;;16.18;69.39
76229;BME280;65021;53.174;18.160;2023-07-28T02:14:46;99944.46;;;16.17;69.75
76229;BME280;65021;53.174;18.160;2023-07-28T02:17:12;99943.02;;;16.17;69.86
76229;BME280;65021;53.174;18.160;2023-07-28T02:19:39;99940.16;;;16.16;70.32
76229;BME280;65021;53.174;18.160;2023-07-28T02:22:05;99935.25;;;16.16;70.38
76229;BME280;65021;53.174;18.160;2023-07-28T02:24:32;99933.34;;;16.15;70.57
76229;BME280;65021;53.174;18.160;2023-07-28T02:26:58;99930.95;;;16.14;70.46
76229;BME280;65021;53.174;18.160;2023-07-28T02:29:25;99927.84;;;16.12;70.57
76229;BME280;65021;53.174;18.160;2023-07-28T02:31:51;99926.18;;;16.10;70.64
76229;BME280;65021;53.174;18.160;2023-07-28T02:34:18;99925.54;;;16.09;70.65
76229;BME280;65021;53.174;18.160;2023-07-28T02:36:44;99925.91;;;16.07;70.77
76229;BME280;65021;53.174;18.160;2023-07-28T02:39:11;99926.16;;;16.05;71.37
76229;BME280;65021;53.174;18.160;2023-07-28T02:41:37;99928.83;;;16.02;71.54
76229;BME280;65021;53.174;18.160;2023-07-28T02:44:04;99926.28;;;16.00;72.26
76229;BME280;65021;53.174;18.160;2023-07-28T02:46:31;99922.73;;;15.98;72.46
76229;BME280;65021;53.174;18.160;2023-07-28T02:48:57;99927.02;;;15.97;72.66
76229;BME280;65021;53.174;18.160;2023-07-28T02:51:24;99926.02;;;15.95;72.73
76229;BME280;65021;53.174;18.160;2023-07-28T02:53:50;99926.04;;;15.94;72.72
76229;BME280;65021;53.174;18.160;2023-07-28T02:56:17;99927.00;;;15.93;73.01
76229;BME280;65021;53.174;18.160;2023-07-28T02:58:43;99927.51;;;15.93;73.46
76229;BME280;65021;53.174;18.160;2023-07-28T03:01:10;99929.40;;;15.94;73.69
76229;BME280;65021;53.174;18.160;2023-07-28T03:03:36;99925.67;;;15.95;74.13
76229;BME280;65021;53.174;18.160;2023-07-28T03:06:03;99926.14;;;15.94;74.57
76229;BME280;65021;53.174;18.160;2023-07-28T03:08:29;99925.98;;;15.93;75.04
76229;BME280;65021;53.174;18.160;2023-07-28T03:10:59;99920.39;;;15.93;74.78
76229;BME280;65021;53.174;18.160;2023-07-28T03:13:28;99916.73;;;15.94;75.29
76229;BME280;65021;53.174;18.160;2023-07-28T03:15:55;99918.88;;;15.93;75.64
76229;BME280;65021;53.174;18.160;2023-07-28T03:18:22;99920.11;;;15.93;75.87
76229;BME280;65021;53.174;18.160;2023-07-28T03:20:48;99920.73;;;15.93;75.83
76229;BME280;65021;53.174;18.160;2023-07-28T03:23:15;99921.36;;;15.95;75.95
76229;BME280;65021;53.174;18.160;2023-07-28T03:25:41;99921.74;;;15.96;76.71
76229;BME280;65021;53.174;18.160;2023-07-28T03:28:08;99921.98;;;15.96;77.88
76229;BME280;65021;53.174;18.160;2023-07-28T03:30:35;99916.17;;;15.94;78.75
76229;BME280;65021;53.174;18.160;2023-07-28T03:33:01;99913.55;;;15.93;79.98
76229;BME280;65021;53.174;18.160;2023-07-28T03:35:28;99913.14;;;15.90;80.64
76229;BME280;65021;53.174;18.160;2023-07-28T03:37:54;99912.69;;;15.87;80.65
76229;BME280;65021;53.174;18.160;2023-07-28T03:40:21;99911.33;;;15.80;81.29
76229;BME280;65021;53.174;18.160;2023-07-28T03:42:48;99911.23;;;15.71;82.04
76229;BME280;65021;53.174;18.160;2023-07-28T03:45:14;99908.60;;;15.66;83.47
76229;BME280;65021;53.174;18.160;2023-07-28T03:47:41;99913.66;;;15.61;83.38
76229;BME280;65021;53.174;18.160;2023-07-28T03:50:08;99907.85;;;15.59;83.37
76229;BME280;65021;53.174;18.160;2023-07-28T03:52:35;99908.48;;;15.58;84.58
76229;BME280;65021;53.174;18.160;2023-07-28T03:55:02;99903.89;;;15.54;84.87
76229;BME280;65021;53.174;18.160;2023-07-28T03:57:28;99899.77;;;15.51;84.74
76229;BME280;65021;53.174;18.160;2023-07-28T03:59:55;99900.42;;;15.49;85.49
76229;BME280;65021;53.174;18.160;2023-07-28T04:02:21;99902.86;;;15.47;85.13
76229;BME280;65021;53.174;18.160;2023-07-28T04:04:53;99898.49;;;15.47;85.13
76229;BME280;65021;53.174;18.160;2023-07-28T04:07:21;99899.30;;;15.49;85.98
76229;BME280;65021;53.174;18.160;2023-07-28T04:09:48;99893.15;;;15.49;85.79
76229;BME280;65021;53.174;18.160;2023-07-28T04:12:14;99891.14;;;15.51;85.81
76229;BME280;65021;53.174;18.160;2023-07-28T04:14:41;99892.18;;;15.54;85.57
76229;BME280;65021;53.174;18.160;2023-07-28T04:17:08;99883.97;;;15.56;85.73
76229;BME280;65021;53.174;18.160;2023-07-28T04:19:35;99879.13;;;15.62;85.72
76229;BME280;65021;53.174;18.160;2023-07-28T04:22:01;99873.47;;;15.66;84.61
76229;BME280;65021;53.174;18.160;2023-07-28T04:24:28;99875.73;;;15.72;84.67
76229;BME280;65021;53.174;18.160;2023-07-28T04:26:55;99878.10;;;15.76;84.47
76229;BME280;65021;53.174;18.160;2023-07-28T04:29:21;99880.00;;;15.79;84.27
76229;BME280;65021;53.174;18.160;2023-07-28T04:31:48;99876.20;;;15.83;84.65
76229;BME280;65021;53.174;18.160;2023-07-28T04:34:15;99873.39;;;15.83;84.78
76229;BME280;65021;53.174;18.160;2023-07-28T04:36:41;99873.20;;;15.85;84.56
76229;BME280;65021;53.174;18.160;2023-07-28T04:39:08;99872.57;;;15.89;84.80
76229;BME280;65021;53.174;18.160;2023-07-28T04:41:34;99871.05;;;15.94;85.05
76229;BME280;65021;53.174;18.160;2023-07-28T04:44:01;99867.33;;;15.99;84.76
76229;BME280;65021;53.174;18.160;2023-07-28T04:46:27;99864.27;;;16.01;85.04
76229;BME280;65021;53.174;18.160;2023-07-28T04:48:54;99863.85;;;16.06;85.40
76229;BME280;65021;53.174;18.160;2023-07-28T04:51:22;99862.48;;;16.08;85.48
76229;BME280;65021;53.174;18.160;2023-07-28T04:53:48;99861.20;;;16.11;85.45
76229;BME280;65021;53.174;18.160;2023-07-28T04:56:15;99862.17;;;16.13;85.15
76229;BME280;65021;53.174;18.160;2023-07-28T04:58:41;99858.65;;;16.16;84.98
76229;BME280;65021;53.174;18.160;2023-07-28T05:01:08;99851.69;;;16.20;85.19
76229;BME280;65021;53.174;18.160;2023-07-28T05:03:35;99852.27;;;16.24;85.16
76229;BME280;65021;53.174;18.160;2023-07-28T05:06:03;99847.98;;;16.29;85.32
76229;BME280;65021;53.174;18.160;2023-07-28T05:08:30;99848.38;;;16.39;85.22
76229;BME280;65021;53.174;18.160;2023-07-28T05:10:58;99849.58;;;16.48;85.12
76229;BME280;65021;53.174;18.160;2023-07-28T05:13:24;99846.98;;;16.53;85.15
76229;BME280;65021;53.174;18.160;2023-07-28T05:15:51;99846.60;;;16.56;85.37
76229;BME280;65021;53.174;18.160;2023-07-28T05:18:18;99845.98;;;16.56;85.94
76229;BME280;65021;53.174;18.160;2023-07-28T05:20:44;99847.09;;;16.54;85.61
76229;BME280;65021;53.174;18.160;2023-07-28T05:23:11;99849.68;;;16.53;85.47
76229;BME280;65021;53.174;18.160;2023-07-28T05:25:37;99848.40;;;16.53;85.47
76229;BME280;65021;53.174;18.160;2023-07-28T05:28:04;99847.23;;;16.55;85.69
76229;BME280;65021;53.174;18.160;2023-07-28T05:30:31;99850.88;;;16.55;85.80
76229;BME280;65021;53.174;18.160;2023-07-28T05:33:03;99848.82;;;16.54;85.35
76229;BME280;65021;53.174;18.160;2023-07-28T05:35:29;99847.56;;;16.51;86.02
76229;BME280;65021;53.174;18.160;2023-07-28T05:37:56;99845.39;;;16.50;86.00
76229;BME280;65021;53.174;18.160;2023-07-28T05:40:22;99839.94;;;16.47;85.81
76229;BME280;65021;53.174;18.160;2023-07-28T05:42:49;99844.09;;;16.45;85.91
76229;BME280;65021;53.174;18.160;2023-07-28T05:45:15;99842.95;;;16.42;86.06
76229;BME280;65021;53.174;18.160;2023-07-28T05:47:42;99837.65;;;16.40;86.03
76229;BME280;65021;53.174;18.160;2023-07-28T05:50:09;99837.50;;;16.39;86.42
76229;BME280;65021;53.174;18.160;2023-07-28T05:52:36;99836.31;;;16.40;86.48
76229;BME280;65021;53.174;18.160;2023-07-28T05:55:02;99836.55;;;16.35;87.08
76229;BME280;65021;53.174;18.160;2023-07-28T05:57:29;99837.15;;;16.29;87.30
76229;BME280;65021;53.174;18.160;2023-07-28T05:59:56;99840.44;;;16.25;87.48
76229;BME280;65021;53.174;18.160;2023-07-28T06:02:23;99839.74;;;16.23;87.46
76229;BME280;65021;53.174;18.160;2023-07-28T06:04:49;99834.84;;;16.21;87.77
76229;BME280;65021;53.174;18.160;2023-07-28T06:07:16;99831.90;;;16.19;87.90
76229;BME280;65021;53.174;18.160;2023-07-28T06:09:43;99832.24;;;16.15;88.12
76229;BME280;65021;53.174;18.160;2023-07-28T06:12:10;99834.64;;;16.12;88.05
76229;BME280;65021;53.174;18.160;2023-07-28T06:14:36;99834.55;;;16.11;88.42
76229;BME280;65021;53.174;18.160;2023-07-28T06:17:03;99837.84;;;16.09;88.41
76229;BME280;65021;53.174;18.160;2023-07-28T06:19:30;99835.83;;;16.05;89.26
76229;BME280;65021;53.174;18.160;2023-07-28T06:21:56;99837.86;;;16.01;89.21
76229;BME280;65021;53.174;18.160;2023-07-28T06:24:23;99841.33;;;16.02;88.92
76229;BME280;65021;53.174;18.160;2023-07-28T06:26:49;99839.73;;;16.03;89.33
76229;BME280;65021;53.174;18.160;2023-07-28T06:29:16;99839.05;;;16.04;89.42
76229;BME280;65021;53.174;18.160;2023-07-28T06:31:43;99841.50;;;16.05;89.47
76229;BME280;65021;53.174;18.160;2023-07-28T06:34:09;99840.66;;;16.04;89.34
76229;BME280;65021;53.174;18.160;2023-07-28T06:36:36;99844.13;;;16.02;89.12
76229;BME280;65021;53.174;18.160;2023-07-28T06:39:03;99840.75;;;15.99;89.54
76229;BME280;65021;53.174;18.160;2023-07-28T06:41:29;99832.04;;;15.97;89.45
76229;BME280;65021;53.174;18.160;2023-07-28T06:43:56;99820.44;;;15.97;89.37
76229;BME280;65021;53.174;18.160;2023-07-28T06:46:22;99825.35;;;15.95;90.33
76229;BME280;65021;53.174;18.160;2023-07-28T06:48:49;99828.52;;;15.92;90.58
76229;BME280;65021;53.174;18.160;2023-07-28T06:51:15;99823.98;;;15.89;90.57
76229;BME280;65021;53.174;18.160;2023-07-28T06:53:42;99823.90;;;15.87;90.62
76229;BME280;65021;53.174;18.160;2023-07-28T06:56:08;99823.36;;;15.86;90.26
76229;BME280;65021;53.174;18.160;2023-07-28T06:58:35;99826.27;;;15.87;90.94
76229;BME280;65021;53.174;18.160;2023-07-28T07:01:02;99820.50;;;15.89;90.62
76229;BME280;65021;53.174;18.160;2023-07-28T07:03:28;99812.49;;;15.89;90.82
76229;BME280;65021;53.174;18.160;2023-07-28T07:05:55;99813.21;;;15.89;91.10
76229;BME280;65021;53.174;18.160;2023-07-28T07:08:23;99812.23;;;15.91;91.60
76229;BME280;65021;53.174;18.160;2023-07-28T07:10:50;99812.36;;;15.93;91.51
76229;BME280;65021;53.174;18.160;2023-07-28T07:13:17;99809.00;;;15.97;91.15
76229;BME280;65021;53.174;18.160;2023-07-28T07:15:44;99809.70;;;16.07;91.30
76229;BME280;65021;53.174;18.160;2023-07-28T07:18:11;99813.66;;;16.23;91.64
76229;BME280;65021;53.174;18.160;2023-07-28T07:20:38;99817.34;;;16.33;91.52
76229;BME280;65021;53.174;18.160;2023-07-28T07:23:05;99819.10;;;16.40;91.59
76229;BME280;65021;53.174;18.160;2023-07-28T07:25:32;99822.39;;;16.46;91.61
76229;BME280;65021;53.174;18.160;2023-07-28T07:27:58;99823.89;;;16.50;91.45
76229;BME280;65021;53.174;18.160;2023-07-28T07:30:25;99826.47;;;16.51;91.60
76229;BME280;65021;53.174;18.160;2023-07-28T07:32:51;99826.36;;;16.51;91.87
76229;BME280;65021;53.174;18.160;2023-07-28T07:35:18;99827.91;;;16.53;92.15
76229;BME280;65021;53.174;18.160;2023-07-28T07:37:45;99830.64;;;16.57;92.00
76229;BME280;65021;53.174;18.160;2023-07-28T07:40:12;99831.50;;;16.60;91.61
76229;BME280;65021;53.174;18.160;2023-07-28T07:42:46;99837.73;;;16.58;91.86
76229;BME280;65021;53.174;18.160;2023-07-28T07:45:13;99844.80;;;16.56;92.16
76229;BME280;65021;53.174;18.160;2023-07-28T07:47:41;99845.68;;;16.57;92.17
76229;BME280;65021;53.174;18.160;2023-07-28T07:50:10;99837.54;;;16.61;91.87
76229;BME280;65021;53.174;18.160;2023-07-28T07:52:37;99836.06;;;16.65;91.98
76229;BME280;65021;53.174;18.160;2023-07-28T07:55:04;99839.32;;;16.64;92.35
76229;BME280;65021;53.174;18.160;2023-07-28T07:57:31;99838.50;;;16.63;92.02
76229;BME280;65021;53.174;18.160;2023-07-28T07:59:58;99836.66;;;16.62;92.32
76229;BME280;65021;53.174;18.160;2023-07-28T08:02:25;99832.40;;;16.62;92.53
76229;BME280;65021;53.174;18.160;2023-07-28T08:04:52;99836.66;;;16.62;92.42
76229;BME280;65021;53.174;18.160;2023-07-28T08:07:20;99832.86;;;16.62;92.41
76229;BME280;65021;53.174;18.160;2023-07-28T08:09:46;99825.25;;;16.66;92.15
76229;BME280;65021;53.174;18.160;2023-07-28T08:12:14;99826.56;;;16.71;92.31
76229;BME280;65021;53.174;18.160;2023-07-28T08:14:41;99820.85;;;16.73;92.64
76229;BME280;65021;53.174;18.160;2023-07-28T08:17:10;99816.29;;;16.74;92.26
76229;BME280;65021;53.174;18.160;2023-07-28T08:19:37;99822.67;;;16.71;92.84
76229;BME280;65021;53.174;18.160;2023-07-28T08:22:04;99818.34;;;16.67;92.98
76229;BME280;65021;53.174;18.160;2023-07-28T08:24:31;99826.34;;;16.62;93.22
76229;BME280;65021;53.174;18.160;2023-07-28T08:26:58;99837.29;;;16.56;93.16
76229;BME280;65021;53.174;18.160;2023-07-28T08:29:25;99841.40;;;16.51;93.26
76229;BME280;65021;53.174;18.160;2023-07-28T08:31:52;99836.44;;;16.49;93.65
76229;BME280;65021;53.174;18.160;2023-07-28T08:34:18;99838.70;;;16.47;93.45
76229;BME280;65021;53.174;18.160;2023-07-28T08:36:45;99835.02;;;16.46;93.52
76229;BME280;65021;53.174;18.160;2023-07-28T08:39:11;99834.55;;;16.47;93.63
76229;BME280;65021;53.174;18.160;2023-07-28T08:41:38;99844.35;;;16.51;93.47
76229;BME280;65021;53.174;18.160;2023-07-28T08:44:05;99848.27;;;16.54;93.80
76229;BME280;65021;53.174;18.160;2023-07-28T08:46:32;99849.80;;;16.56;93.82
76229;BME280;65021;53.174;18.160;2023-07-28T08:49:01;99858.44;;;16.65;93.71
76229;BME280;65021;53.174;18.160;2023-07-28T08:51:27;99856.77;;;16.73;93.95
76229;BME280;65021;53.174;18.160;2023-07-28T08:53:54;99825.21;;;16.77;93.67
76229;BME280;65021;53.174;18.160;2023-07-28T08:56:21;99812.29;;;16.81;93.49
76229;BME280;65021;53.174;18.160;2023-07-28T08:58:48;99809.95;;;16.88;93.60
76229;BME280;65021;53.174;18.160;2023-07-28T09:01:14;99813.40;;;17.01;93.67
76229;BME280;65021;53.174;18.160;2023-07-28T09:03:41;99809.45;;;17.20;93.71
76229;BME280;65021;53.174;18.160;2023-07-28T09:06:08;99804.44;;;17.44;93.51
76229;BME280;65021;53.174;18.160;2023-07-28T09:08:36;99808.58;;;17.73;93.26
76229;BME280;65021;53.174;18.160;2023-07-28T09:11:04;99812.72;;;18.00;93.25
76229;BME280;65021;53.174;18.160;2023-07-28T09:13:41;99806.39;;;18.28;93.13
76229;BME280;65021;53.174;18.160;2023-07-28T09:16:26;99806.31;;;18.64;92.69
76229;BME280;65021;53.174;18.160;2023-07-28T09:19:08;99797.83;;;18.99;92.11
76229;BME280;65021;53.174;18.160;2023-07-28T09:21:39;99796.88;;;19.30;92.05
76229;BME280;65021;53.174;18.160;2023-07-28T09:24:08;99799.00;;;19.64;91.80
76229;BME280;65021;53.174;18.160;2023-07-28T09:26:46;99797.80;;;19.91;91.13
76229;BME280;65021;53.174;18.160;2023-07-28T09:29:14;99798.73;;;20.13;90.69
76229;BME280;65021;53.174;18.160;2023-07-28T09:31:45;99801.09;;;20.29;90.43
76229;BME280;65021;53.174;18.160;2023-07-28T09:34:13;99799.59;;;20.28;90.31
76229;BME280;65021;53.174;18.160;2023-07-28T09:36:49;99801.92;;;20.29;90.12
76229;BME280;65021;53.174;18.160;2023-07-28T09:39:15;99801.86;;;20.29;90.21
76229;BME280;65021;53.174;18.160;2023-07-28T09:41:44;99801.96;;;20.44;89.87
76229;BME280;65021;53.174;18.160;2023-07-28T09:44:12;99804.52;;;20.63;89.70
76229;BME280;65021;53.174;18.160;2023-07-28T09:46:52;99804.70;;;20.78;89.21
76229;BME280;65021;53.174;18.160;2023-07-28T09:49:20;99800.86;;;20.72;89.00
76229;BME280;65021;53.174;18.160;2023-07-28T09:51:48;99803.20;;;20.54;89.16
76229;BME280;65021;53.174;18.160;2023-07-28T09:54:23;99805.88;;;20.42;89.70
76229;BME280;65021;53.174;18.160;2023-07-28T09:57:01;99802.17;;;20.28;89.30
76229;BME280;65021;53.174;18.160;2023-07-28T09:59:38;99797.77;;;20.16;89.51
76229;BME280;65021;53.174;18.160;2023-07-28T10:02:11;99797.22;;;20.13;89.57
76229;BME280;65021;53.174;18.160;2023-07-28T10:04:55;99792.64;;;20.17;89.44
76229;BME280;65021;53.174;18.160;2023-07-28T10:07:24;99793.62;;;20.29;89.24
76229;BME280;65021;53.174;18.160;2023-07-28T10:09:51;99790.16;;;20.49;88.85
76229;BME280;65021;53.174;18.160;2023-07-28T10:12:23;99790.95;;;20.75;88.91
76229;BME280;65021;53.174;18.160;2023-07-28T10:15:01;99782.23;;;21.04;87.83
76229;BME280;65021;53.174;18.160;2023-07-28T10:17:35;99781.55;;;21.23;87.89
76229;BME280;65021;53.174;18.160;2023-07-28T10:20:04;99777.16;;;21.46;87.03
76229;BME280;65021;53.174;18.160;2023-07-28T10:22:45;99769.98;;;21.85;87.12
76229;BME280;65021;53.174;18.160;2023-07-28T10:25:22;99773.16;;;22.43;85.38
76229;BME280;65021;53.174;18.160;2023-07-28T10:27:57;99775.20;;;22.75;84.52
76229;BME280;65021;53.174;18.160;2023-07-28T10:30:24;99777.86;;;22.99;85.18
76229;BME280;65021;53.174;18.160;2023-07-28T10:32:54;99772.80;;;23.07;84.85
76229;BME280;65021;53.174;18.160;2023-07-28T10:35:23;99774.09;;;23.00;84.70
76229;BME280;65021;53.174;18.160;2023-07-28T10:37:55;99771.66;;;22.97;84.95
76229;BME280;65021;53.174;18.160;2023-07-28T10:40:32;99769.59;;;22.98;84.83
76229;BME280;65021;53.174;18.160;2023-07-28T10:43:03;99771.76;;;23.00;84.71
76229;BME280;65021;53.174;18.160;2023-07-28T10:45:32;99774.74;;;22.86;83.96
76229;BME280;65021;53.174;18.160;2023-07-28T10:48:00;99776.27;;;22.69;84.36
76229;BME280;65021;53.174;18.160;2023-07-28T10:50:28;99775.36;;;22.52;84.09
76229;BME280;65021;53.174;18.160;2023-07-28T10:52:55;99770.03;;;22.48;83.69
76229;BME280;65021;53.174;18.160;2023-07-28T10:55:24;99773.00;;;22.45;84.04
76229;BME280;65021;53.174;18.160;2023-07-28T10:57:53;99770.59;;;22.43;84.07
76229;BME280;65021;53.174;18.160;2023-07-28T11:00:22;99772.09;;;22.29;83.36
76229;BME280;65021;53.174;18.160;2023-07-28T11:02:50;99773.49;;;22.29;83.74
76229;BME280;65021;53.174;18.160;2023-07-28T11:07:49;99780.09;;;22.39;83.34
76229;BME280;65021;53.174;18.160;2023-07-28T11:10:16;99781.76;;;22.56;83.03
76229;BME280;65021;53.174;18.160;2023-07-28T11:12:44;99783.45;;;22.75;82.53
76229;BME280;65021;53.174;18.160;2023-07-28T11:15:14;99784.95;;;22.93;82.72
76229;BME280;65021;53.174;18.160;2023-07-28T11:17:43;99786.94;;;23.17;82.44
76229;BME280;65021;53.174;18.160;2023-07-28T11:20:28;99786.25;;;23.40;82.37
76229;BME280;65021;53.174;18.160;2023-07-28T11:22:57;99785.48;;;23.73;82.82
76229;BME280;65021;53.174;18.160;2023-07-28T11:25:27;99782.98;;;24.16;82.28
76229;BME280;65021;53.174;18.160;2023-07-28T11:27:54;99785.23;;;24.41;81.92
76229;BME280;65021;53.174;18.160;2023-07-28T11:30:24;99791.57;;;24.65;81.24
76229;BME280;65021;53.174;18.160;2023-07-28T11:32:52;99794.24;;;24.31;77.79
76229;BME280;65021;53.174;18.160;2023-07-28T11:35:20;99790.36;;;23.74;78.52
76229;BME280;65021;53.174;18.160;2023-07-28T11:37:52;99790.81;;;23.62;79.98
76229;BME280;65021;53.174;18.160;2023-07-28T11:40:20;99779.02;;;23.94;79.78
76229;BME280;65021;53.174;18.160;2023-07-28T11:42:50;99779.59;;;24.35;79.45
76229;BME280;65021;53.174;18.160;2023-07-28T11:45:18;99776.41;;;24.45;76.95
76229;BME280;65021;53.174;18.160;2023-07-28T11:47:56;99778.30;;;24.35;77.40
76229;BME280;65021;53.174;18.160;2023-07-28T11:50:23;99778.98;;;24.14;76.85
76229;BME280;65021;53.174;18.160;2023-07-28T11:52:50;99784.52;;;23.99;77.78
76229;BME280;65021;53.174;18.160;2023-07-28T11:55:18;99787.10;;;23.71;77.41
76229;BME280;65021;53.174;18.160;2023-07-28T11:57:44;99786.33;;;23.47;77.97
76229;BME280;65021;53.174;18.160;2023-07-28T12:00:11;99786.14;;;23.41;78.72
76229;BME280;65021;53.174;18.160;2023-07-28T12:02:43;99784.30;;;23.42;78.04
76229;BME280;65021;53.174;18.160;2023-07-28T12:05:13;99782.08;;;23.38;78.07
76229;BME280;65021;53.174;18.160;2023-07-28T12:07:41;99786.26;;;23.52;78.28
76229;BME280;65021;53.174;18.160;2023-07-28T12:10:08;99788.02;;;23.82;78.11
76229;BME280;65021;53.174;18.160;2023-07-28T12:12:45;99793.80;;;24.14;77.71
76229;BME280;65021;53.174;18.160;2023-07-28T12:20:48;99803.09;;;23.94;77.27
76229;BME280;65021;53.174;18.160;2023-07-28T12:23:17;99799.39;;;23.77;77.83
76229;BME280;65021;53.174;18.160;2023-07-28T12:25:44;99799.09;;;23.68;78.12
76229;BME280;65021;53.174;18.160;2023-07-28T12:28:11;99798.61;;;23.60;78.83
76229;BME280;65021;53.174;18.160;2023-07-28T12:30:38;99798.98;;;23.60;78.90
76229;BME280;65021;53.174;18.160;2023-07-28T12:33:08;99796.25;;;23.60;78.53
76229;BME280;65021;53.174;18.160;2023-07-28T12:35:38;99797.42;;;23.66;78.50
76229;BME280;65021;53.174;18.160;2023-07-28T12:38:05;99801.35;;;23.65;77.73
76229;BME280;65021;53.174;18.160;2023-07-28T12:40:33;99799.57;;;23.65;78.13
76229;BME280;65021;53.174;18.160;2023-07-28T12:43:02;99793.45;;;23.72;77.70
76229;BME280;65021;53.174;18.160;2023-07-28T12:45:29;99796.52;;;23.79;77.57
76229;BME280;65021;53.174;18.160;2023-07-28T12:47:56;99793.18;;;23.81;77.94
76229;BME280;65021;53.174;18.160;2023-07-28T12:50:23;99793.66;;;23.96;77.06
76229;BME280;65021;53.174;18.160;2023-07-28T12:52:50;99791.73;;;24.18;76.98
76229;BME280;65021;53.174;18.160;2023-07-28T12:55:17;99797.53;;;24.27;74.87
76229;BME280;65021;53.174;18.160;2023-07-28T12:57:44;99802.34;;;24.38;74.15
76229;BME280;65021;53.174;18.160;2023-07-28T13:00:11;99799.77;;;24.58;72.26
76229;BME280;65021;53.174;18.160;2023-07-28T13:02:43;99805.61;;;24.73;73.82
76229;BME280;65021;53.174;18.160;2023-07-28T13:05:12;99806.57;;;24.86;72.00